Time;durP1;ratioP1;P1;durP2;ratioP2;P2;SDS_P1;SDS_P2;PMS_P1;PMS_P2;Temp;Humidity;BMP_temperature;BMP_pressure;BME280_temperature;BME280_humidity;BME280_pressure;Samples;Min_cycle;Max_cycle;Signal;HPM_P1;HPM_P2
2022/11/24 00:01:30;;;;;;;40.20;7.65;;;9.30;99.90;;;;;;5052045;28;20017;-63
2022/11/24 00:04:01;;;;;;;40.75;8.50;;;9.20;99.90;;;;;;5052030;28;20746;-63
2022/11/24 00:06:28;;;;;;;39.53;8.68;;;9.10;99.90;;;;;;5052154;28;20036;-63
2022/11/24 00:08:54;;;;;;;40.38;8.63;;;9.00;99.90;;;;;;5052465;28;20104;-64
2022/11/24 00:11:25;;;;;;;40.08;9.02;;;8.80;99.90;;;;;;5051743;28;20064;-63
2022/11/24 00:13:52;;;;;;;45.10;8.23;;;8.70;99.90;;;;;;5052166;28;20021;-63
2022/11/24 00:16:21;;;;;;;39.78;8.00;;;8.60;99.90;;;;;;5052019;28;20048;-63
2022/11/24 00:18:49;;;;;;;38.88;8.00;;;8.60;99.90;;;;;;5052387;28;20047;-63
2022/11/24 00:21:17;;;;;;;39.95;8.10;;;8.50;99.90;;;;;;5052033;28;20025;-64
2022/11/24 00:23:43;;;;;;;39.13;8.38;;;8.50;99.90;;;;;;5051878;28;20032;-63
2022/11/24 00:26:10;;;;;;;44.67;8.90;;;8.60;99.90;;;;;;5051333;28;20037;-64
2022/11/24 00:28:37;;;;;;;41.03;7.78;;;8.60;99.90;;;;;;5051957;28;20025;-63
2022/11/24 00:31:04;;;;;;;39.30;8.82;;;8.50;99.90;;;;;;5051700;28;20062;-64
2022/11/24 00:33:30;;;;;;;51.35;8.95;;;8.50;99.90;;;;;;5052169;28;20023;-63
2022/11/24 00:35:57;;;;;;;38.88;8.63;;;8.30;99.90;;;;;;5051706;28;20029;-63
2022/11/24 00:38:23;;;;;;;33.13;8.73;;;8.20;99.90;;;;;;5051603;28;20029;-64
2022/11/24 00:40:50;;;;;;;43.63;9.43;;;8.20;99.90;;;;;;5051184;28;20406;-63
2022/11/24 00:43:16;;;;;;;39.58;9.35;;;8.20;99.90;;;;;;5052045;28;20036;-63
2022/11/24 00:45:42;;;;;;;35.42;8.50;;;8.00;99.90;;;;;;5051601;28;20036;-63
2022/11/24 00:48:08;;;;;;;37.90;8.40;;;8.00;99.90;;;;;;5051625;28;20033;-63
2022/11/24 00:50:34;;;;;;;45.10;9.90;;;8.10;99.90;;;;;;5051611;28;20029;-63
2022/11/24 00:53:00;;;;;;;37.97;8.18;;;8.00;99.90;;;;;;5052769;28;20032;-63
2022/11/24 00:55:25;;;;;;;36.40;8.38;;;8.10;99.90;;;;;;5055748;28;20021;-63
2022/11/24 00:57:51;;;;;;;42.08;8.30;;;8.30;99.90;;;;;;5055647;28;20017;-63
2022/11/24 01:00:17;;;;;;;36.10;7.80;;;8.30;99.90;;;;;;5055466;28;20033;-63
2022/11/24 01:02:43;;;;;;;39.88;7.90;;;8.20;99.90;;;;;;5055568;28;20025;-62
2022/11/24 01:05:09;;;;;;;33.45;7.57;;;8.20;99.90;;;;;;5055674;28;20110;-63
2022/11/24 01:07:35;;;;;;;41.65;7.85;;;8.00;99.90;;;;;;5055909;28;20409;-63
2022/11/24 01:10:01;;;;;;;44.58;8.43;;;8.10;99.90;;;;;;5055123;28;20021;-62
2022/11/24 01:12:27;;;;;;;33.80;7.05;;;8.00;99.90;;;;;;5055561;28;20036;-63
2022/11/24 01:14:53;;;;;;;34.53;6.78;;;7.80;99.90;;;;;;5055327;28;20040;-62
2022/11/24 01:17:19;;;;;;;36.75;7.75;;;7.70;99.90;;;;;;5055683;28;20035;-63
2022/11/24 01:19:48;;;;;;;43.08;23.95;;;7.90;99.90;;;;;;5055269;28;20032;-64
2022/11/24 01:22:14;;;;;;;33.20;6.90;;;8.00;99.90;;;;;;5054964;28;20033;-62
2022/11/24 01:24:40;;;;;;;37.45;8.85;;;7.80;99.90;;;;;;5055063;28;20493;-63
2022/11/24 01:27:06;;;;;;;26.30;7.30;;;7.60;99.90;;;;;;5053991;28;20025;-63
2022/11/24 01:29:32;;;;;;;40.53;7.50;;;7.30;99.90;;;;;;5055033;28;20029;-63
2022/11/24 01:31:57;;;;;;;40.65;7.90;;;7.70;99.90;;;;;;5055048;28;20029;-63
2022/11/24 01:34:23;;;;;;;35.15;7.38;;;7.90;99.90;;;;;;5055102;28;20493;-63
2022/11/24 01:36:49;;;;;;;40.90;7.38;;;7.90;99.90;;;;;;5054907;28;20028;-62
2022/11/24 01:39:15;;;;;;;38.08;6.68;;;7.90;99.90;;;;;;5054553;28;20036;-63
2022/11/24 01:41:40;;;;;;;37.20;6.47;;;7.80;99.90;;;;;;5055135;28;20036;-63
2022/11/24 01:44:25;;;;;;;36.38;6.70;;;7.90;99.90;;;;;;5053831;28;20029;-63
2022/11/24 01:47:10;;;;;;;29.65;5.82;;;7.60;99.90;;;;;;5054860;28;20040;-63
2022/11/24 01:49:47;;;;;;;33.88;6.32;;;7.60;99.90;;;;;;5055163;28;20028;-62
2022/11/24 01:52:19;;;;;;;34.80;6.82;;;7.50;99.90;;;;;;5054419;28;20025;-63
2022/11/24 01:54:50;;;;;;;30.50;6.50;;;7.80;99.90;;;;;;5054717;28;20029;-64
2022/11/24 01:57:43;;;;;;;33.15;6.57;;;8.10;99.90;;;;;;5054573;28;20025;-63
2022/11/24 02:00:12;;;;;;;27.90;6.85;;;8.10;99.90;;;;;;5054554;28;20021;-64
2022/11/24 02:02:39;;;;;;;32.83;6.95;;;8.20;99.90;;;;;;5053964;28;20032;-63
2022/11/24 02:05:09;;;;;;;34.05;7.03;;;8.30;99.90;;;;;;5054713;28;20041;-64
2022/11/24 02:07:36;;;;;;;34.45;6.75;;;8.20;99.90;;;;;;5054287;28;20094;-63
2022/11/24 02:10:08;;;;;;;27.88;6.05;;;8.30;99.90;;;;;;5054407;28;20541;-62
2022/11/24 02:12:37;;;;;;;27.80;6.45;;;8.40;99.90;;;;;;5054404;28;20024;-63
2022/11/24 02:15:03;;;;;;;28.58;6.82;;;8.50;99.90;;;;;;5054541;28;20079;-63
2022/11/24 02:17:29;;;;;;;34.25;7.07;;;8.60;99.90;;;;;;5054231;28;20033;-63
2022/11/24 02:19:58;;;;;;;39.90;7.57;;;8.70;99.90;;;;;;5054164;28;20475;-63
2022/11/24 02:22:36;;;;;;;31.20;7.38;;;8.70;99.90;;;;;;5053979;28;20048;-63
2022/11/24 02:25:41;;;;;;;30.63;6.65;;;8.70;99.90;;;;;;5053995;28;20064;-63
2022/11/24 02:28:11;;;;;;;32.28;7.80;;;8.80;99.90;;;;;;5054153;28;20041;-63
2022/11/24 02:30:38;;;;;;;30.65;7.00;;;8.80;99.90;;;;;;5054092;28;20414;-63
2022/11/24 02:33:03;;;;;;;30.95;6.93;;;8.80;99.90;;;;;;5054004;28;20567;-64
2022/11/24 02:35:30;;;;;;;33.88;7.40;;;8.70;99.90;;;;;;5053715;28;20048;-63
2022/11/24 02:37:55;;;;;;;29.52;6.07;;;8.70;99.90;;;;;;5054001;28;20036;-63
2022/11/24 02:40:24;;;;;;;28.23;6.38;;;8.70;99.90;;;;;;5053565;28;20049;-63
2022/11/24 02:42:55;;;;;;;31.45;6.45;;;8.80;99.90;;;;;;5053790;28;20104;-63
2022/11/24 02:45:22;;;;;;;35.22;7.03;;;8.80;99.90;;;;;;5053607;28;20048;-63
2022/11/24 02:47:48;;;;;;;32.38;6.85;;;8.90;99.90;;;;;;5053790;28;20394;-64
2022/11/24 02:50:13;;;;;;;31.45;6.55;;;8.90;99.90;;;;;;5053178;28;20032;-63
2022/11/24 02:52:39;;;;;;;33.60;6.57;;;8.90;99.90;;;;;;5053563;28;20025;-63
2022/11/24 02:55:05;;;;;;;32.13;6.85;;;8.90;99.90;;;;;;5053891;28;20032;-63
2022/11/24 02:57:31;;;;;;;33.83;6.80;;;8.80;99.90;;;;;;5053499;28;20017;-63
2022/11/24 02:59:56;;;;;;;36.47;7.20;;;8.80;99.90;;;;;;5053415;28;20422;-63
2022/11/24 03:02:22;;;;;;;29.10;6.97;;;8.80;99.90;;;;;;5053545;28;20021;-63
2022/11/24 03:04:48;;;;;;;41.30;7.60;;;8.70;99.90;;;;;;5052832;28;20448;-64
2022/11/24 03:07:14;;;;;;;39.25;7.60;;;8.70;99.90;;;;;;5053374;28;20021;-64
2022/11/24 03:09:39;;;;;;;32.10;7.70;;;8.70;99.90;;;;;;5053108;28;20083;-63
2022/11/24 03:12:05;;;;;;;40.10;7.80;;;8.70;99.90;;;;;;5053418;28;20025;-63
2022/11/24 03:14:31;;;;;;;40.58;7.90;;;8.60;99.90;;;;;;5052600;28;20017;-63
2022/11/24 03:16:56;;;;;;;38.72;7.80;;;8.70;99.90;;;;;;5053006;28;20032;-62
2022/11/24 03:19:22;;;;;;;41.38;8.13;;;8.70;99.90;;;;;;5052667;28;20029;-63
2022/11/24 03:21:48;;;;;;;45.83;8.02;;;8.60;99.90;;;;;;5053001;28;20389;-62
2022/11/24 03:24:14;;;;;;;42.03;8.02;;;8.50;99.90;;;;;;5052727;28;20029;-63
2022/11/24 03:26:40;;;;;;;37.42;7.70;;;8.60;99.90;;;;;;5053239;28;20462;-63
2022/11/24 03:29:07;;;;;;;32.85;7.57;;;8.60;99.90;;;;;;5053047;28;20610;-62
2022/11/24 03:31:32;;;;;;;36.50;8.15;;;8.60;99.90;;;;;;5052826;28;20425;-63
2022/11/24 03:33:58;;;;;;;42.30;8.30;;;8.70;99.90;;;;;;5052769;28;20032;-64
2022/11/24 03:36:24;;;;;;;38.25;7.63;;;8.80;99.90;;;;;;5051475;28;20140;-64
2022/11/24 03:38:50;;;;;;;35.35;7.38;;;8.80;99.90;;;;;;5052611;28;20025;-62
2022/11/24 03:41:15;;;;;;;36.63;8.40;;;8.90;99.90;;;;;;5052451;28;20045;-64
2022/11/24 03:43:41;;;;;;;34.05;8.90;;;8.90;99.90;;;;;;5052608;28;20025;-63
2022/11/24 03:46:07;;;;;;;44.67;9.13;;;9.00;99.90;;;;;;5052569;28;20371;-64
2022/11/24 03:48:33;;;;;;;42.00;10.15;;;9.00;99.90;;;;;;5052817;28;20025;-63
2022/11/24 03:51:00;;;;;;;44.28;9.88;;;9.00;99.90;;;;;;5052517;28;20390;-64
2022/11/24 03:53:27;;;;;;;43.17;10.23;;;9.00;99.90;;;;;;5052307;28;20029;-63
2022/11/24 03:55:53;;;;;;;39.75;9.57;;;9.00;99.90;;;;;;5052435;28;20029;-63
2022/11/24 03:58:18;;;;;;;38.15;8.15;;;8.90;99.90;;;;;;5052704;28;20102;-63
2022/11/24 04:00:44;;;;;;;42.83;9.20;;;8.90;99.90;;;;;;5052130;28;20443;-64
2022/11/24 04:03:10;;;;;;;44.13;9.13;;;8.80;99.90;;;;;;5052477;28;20020;-63
2022/11/24 04:05:36;;;;;;;49.03;9.82;;;8.80;99.90;;;;;;5052160;28;20505;-63
2022/11/24 04:08:04;;;;;;;38.92;8.82;;;8.70;99.90;;;;;;5052245;28;20021;-63
2022/11/24 04:10:32;;;;;;;35.15;8.85;;;8.70;99.90;;;;;;5052425;28;20040;-63
2022/11/24 04:12:57;;;;;;;37.30;8.27;;;8.70;99.90;;;;;;5052173;28;20021;-63
2022/11/24 04:15:23;;;;;;;39.95;8.85;;;8.50;99.90;;;;;;5051964;28;20166;-64
2022/11/24 04:17:49;;;;;;;36.03;8.57;;;8.60;99.90;;;;;;5051706;28;20033;-63
2022/11/24 04:20:16;;;;;;;42.05;8.73;;;8.60;99.90;;;;;;5051881;28;20028;-63
2022/11/24 04:22:41;;;;;;;40.28;8.43;;;8.50;99.90;;;;;;5052227;28;20059;-63
2022/11/24 04:25:08;;;;;;;46.40;9.38;;;8.40;99.90;;;;;;5051757;28;20122;-63
2022/11/24 04:27:35;;;;;;;52.58;9.10;;;8.40;99.90;;;;;;5051677;28;20028;-63
2022/11/24 04:30:02;;;;;;;44.67;8.93;;;8.40;99.90;;;;;;5051759;28;20029;-63
2022/11/24 04:32:27;;;;;;;48.58;9.48;;;8.50;99.90;;;;;;5051511;28;20075;-64
2022/11/24 04:34:53;;;;;;;35.53;8.35;;;8.50;99.90;;;;;;5051694;28;20037;-63
2022/11/24 04:37:19;;;;;;;47.58;9.48;;;8.50;99.90;;;;;;5051773;28;20355;-63
2022/11/24 04:39:45;;;;;;;38.03;8.55;;;8.60;99.90;;;;;;5051786;28;20041;-63
2022/11/24 04:42:11;;;;;;;35.50;8.38;;;8.60;99.90;;;;;;5051335;28;20032;-63
2022/11/24 04:44:37;;;;;;;43.33;9.10;;;8.60;99.90;;;;;;5052366;28;20258;-63
2022/11/24 04:47:04;;;;;;;41.92;8.95;;;8.50;99.90;;;;;;5051461;28;20036;-63
2022/11/24 04:49:29;;;;;;;42.65;9.35;;;8.50;99.90;;;;;;5051649;28;20021;-64
2022/11/24 04:51:55;;;;;;;32.83;8.25;;;8.60;99.90;;;;;;5051650;28;20071;-64
2022/11/24 04:54:21;;;;;;;44.65;10.20;;;8.70;99.90;;;;;;5051999;28;20382;-63
2022/11/24 04:56:50;;;;;;;42.25;9.10;;;8.70;99.90;;;;;;5051638;28;20040;-64
2022/11/24 04:59:16;;;;;;;36.08;8.48;;;8.70;99.90;;;;;;5051548;28;20095;-64
2022/11/24 05:01:43;;;;;;;34.95;9.15;;;8.70;99.90;;;;;;5051721;28;20024;-63
2022/11/24 05:04:13;;;;;;;31.42;8.52;;;8.90;99.90;;;;;;5051528;28;20017;-62
2022/11/24 05:06:40;;;;;;;42.88;9.38;;;8.80;99.90;;;;;;5051408;28;20025;-62
2022/11/24 05:09:06;;;;;;;50.05;10.18;;;8.70;99.90;;;;;;5051560;28;20025;-63
2022/11/24 05:11:32;;;;;;;38.33;8.32;;;8.70;99.90;;;;;;5051428;28;20028;-63
2022/11/24 05:13:59;;;;;;;38.00;8.25;;;8.60;99.90;;;;;;5051450;28;20033;-63
2022/11/24 05:16:25;;;;;;;31.20;8.13;;;8.70;99.90;;;;;;5051419;28;20021;-63
2022/11/24 05:18:50;;;;;;;40.63;8.23;;;8.60;99.90;;;;;;5051336;28;20055;-63
2022/11/24 05:21:16;;;;;;;41.00;9.18;;;8.60;99.90;;;;;;5051373;28;20031;-63
2022/11/24 05:23:42;;;;;;;32.60;8.15;;;8.40;99.90;;;;;;5051656;28;20394;-63
2022/11/24 05:26:07;;;;;;;40.00;8.45;;;8.30;99.90;;;;;;5051126;28;20041;-63
2022/11/24 05:28:33;;;;;;;35.10;8.43;;;8.40;99.90;;;;;;5051355;28;20486;-63
2022/11/24 05:31:00;;;;;;;41.33;8.93;;;8.50;99.90;;;;;;5050892;28;20029;-63
2022/11/24 05:33:27;;;;;;;41.35;8.70;;;8.50;99.90;;;;;;5051569;28;20497;-64
2022/11/24 05:35:53;;;;;;;45.30;8.60;;;8.40;99.90;;;;;;5051021;28;20017;-63
2022/11/24 05:38:21;;;;;;;34.83;8.52;;;8.50;99.90;;;;;;5052394;28;20021;-63
2022/11/24 05:40:47;;;;;;;39.47;9.73;;;8.50;99.90;;;;;;5054705;28;20083;-64
2022/11/24 05:43:14;;;;;;;44.67;9.27;;;8.50;99.90;;;;;;5054579;28;20426;-64
2022/11/24 05:45:40;;;;;;;31.40;8.07;;;8.60;99.90;;;;;;5054754;28;20037;-63
2022/11/24 05:48:08;;;;;;;38.20;8.68;;;8.60;99.90;;;;;;5055101;28;20025;-63
2022/11/24 05:50:35;;;;;;;39.05;9.48;;;8.70;99.90;;;;;;5054691;28;20104;-63
2022/11/24 05:53:05;;;;;;;35.13;8.95;;;8.60;99.90;;;;;;5054622;28;20383;-63
2022/11/24 05:55:31;;;;;;;38.08;9.45;;;8.60;99.90;;;;;;5054919;28;20426;-63
2022/11/24 05:58:06;;;;;;;31.85;9.13;;;8.60;99.90;;;;;;5054248;28;20025;-63
2022/11/24 06:00:33;;;;;;;34.13;9.70;;;8.60;99.90;;;;;;5053206;28;20547;-63
2022/11/24 06:02:59;;;;;;;30.38;9.25;;;8.60;99.90;;;;;;5054455;28;20025;-63
2022/11/24 06:05:26;;;;;;;37.17;9.70;;;8.60;99.90;;;;;;5054338;28;20037;-63
2022/11/24 06:07:52;;;;;;;33.90;9.32;;;8.50;99.90;;;;;;5054751;28;20032;-63
2022/11/24 06:10:19;;;;;;;36.03;9.63;;;8.40;99.90;;;;;;5054370;28;20108;-63
2022/11/24 06:12:45;;;;;;;39.50;10.23;;;8.40;99.90;;;;;;5054002;28;20025;-63
2022/11/24 06:15:12;;;;;;;34.00;9.30;;;8.40;99.90;;;;;;5054387;28;20497;-63
2022/11/24 06:17:38;;;;;;;35.75;10.20;;;8.30;99.90;;;;;;5054117;28;20032;-63
2022/11/24 06:20:06;;;;;;;29.33;9.45;;;8.40;99.90;;;;;;5054558;28;20155;-63
2022/11/24 06:22:31;;;;;;;32.92;10.38;;;8.40;99.90;;;;;;5054255;28;20033;-64
2022/11/24 06:24:57;;;;;;;35.88;10.75;;;8.50;99.90;;;;;;5053916;28;20040;-63
2022/11/24 06:27:23;;;;;;;31.05;11.10;;;8.50;99.90;;;;;;5053804;28;20031;-64
2022/11/24 06:29:49;;;;;;;34.88;15.30;;;8.50;99.90;;;;;;5054213;28;20394;-63
2022/11/24 06:32:14;;;;;;;35.50;13.68;;;8.40;99.90;;;;;;5053852;28;20032;-63
2022/11/24 06:34:40;;;;;;;33.50;15.18;;;8.40;99.90;;;;;;5054088;28;20025;-63
2022/11/24 06:37:06;;;;;;;45.10;17.35;;;8.30;99.90;;;;;;5054111;28;20355;-63
2022/11/24 06:39:32;;;;;;;32.63;15.00;;;8.30;99.90;;;;;;5053646;28;20119;-63
2022/11/24 06:41:58;;;;;;;34.70;16.92;;;8.20;99.90;;;;;;5053488;28;20032;-63
2022/11/24 06:44:23;;;;;;;32.63;15.70;;;8.20;99.90;;;;;;5054051;28;20032;-62
2022/11/24 06:46:49;;;;;;;33.05;16.20;;;8.20;99.90;;;;;;5053713;28;20115;-63
2022/11/24 06:49:15;;;;;;;33.15;17.25;;;8.20;99.90;;;;;;5052222;28;20108;-62
2022/11/24 06:51:41;;;;;;;33.70;17.38;;;8.20;99.90;;;;;;5053596;28;20069;-63
2022/11/24 06:54:07;;;;;;;36.50;17.42;;;8.20;99.90;;;;;;5053637;28;20460;-63
2022/11/24 06:56:33;;;;;;;32.08;18.15;;;8.10;99.90;;;;;;5053653;28;20538;-63
2022/11/24 06:58:59;;;;;;;31.52;17.13;;;8.10;99.90;;;;;;5053429;28;20036;-63
2022/11/24 07:01:27;;;;;;;32.08;16.92;;;8.10;99.90;;;;;;5053345;28;20485;-62
2022/11/24 07:03:54;;;;;;;37.58;18.80;;;8.10;99.90;;;;;;5053325;28;20059;-63
2022/11/24 07:06:22;;;;;;;34.40;18.15;;;8.10;99.90;;;;;;5053231;28;20055;-63
2022/11/24 07:08:48;;;;;;;32.35;19.13;;;8.10;99.90;;;;;;5053206;28;20431;-63
2022/11/24 07:11:17;;;;;;;31.10;17.73;;;8.10;99.90;;;;;;5052981;28;20505;-63
2022/11/24 07:13:44;;;;;;;36.10;17.40;;;8.10;99.90;;;;;;5053297;28;20017;-62
2022/11/24 07:16:16;;;;;;;33.33;17.17;;;8.10;99.90;;;;;;5053321;28;20058;-63
2022/11/24 07:18:46;;;;;;;31.73;16.83;;;8.20;99.90;;;;;;5053044;28;20025;-63
2022/11/24 07:21:12;;;;;;;37.50;17.40;;;8.20;99.90;;;;;;5053100;28;20029;-63
2022/11/24 07:23:38;;;;;;;32.17;17.83;;;8.20;99.90;;;;;;5053373;28;20500;-63
2022/11/24 07:26:05;;;;;;;33.67;17.33;;;8.20;99.90;;;;;;5052467;28;20055;-63
2022/11/24 07:28:31;;;;;;;34.35;16.55;;;8.20;99.90;;;;;;5052915;28;20390;-63
2022/11/24 07:30:57;;;;;;;34.83;16.95;;;8.20;99.90;;;;;;5052776;28;20028;-63
2022/11/24 07:33:24;;;;;;;37.03;18.05;;;8.20;99.90;;;;;;5052930;28;20047;-63
2022/11/24 07:35:53;;;;;;;38.33;17.90;;;8.30;99.90;;;;;;5053093;28;20036;-63
2022/11/24 07:38:20;;;;;;;35.20;16.63;;;8.30;99.90;;;;;;5052829;28;20020;-62
2022/11/24 07:40:45;;;;;;;34.58;15.95;;;8.40;99.90;;;;;;5052234;28;20064;-62
2022/11/24 07:43:11;;;;;;;34.90;15.93;;;8.40;99.90;;;;;;5052616;28;20021;-63
2022/11/24 07:45:38;;;;;;;31.70;14.52;;;8.50;99.90;;;;;;5052241;28;20055;-63
2022/11/24 07:48:04;;;;;;;37.20;15.70;;;8.50;99.90;;;;;;5052547;28;20033;-62
2022/11/24 07:50:30;;;;;;;30.85;14.75;;;8.60;99.90;;;;;;5053001;28;20423;-63
2022/11/24 07:53:01;;;;;;;38.33;14.98;;;8.60;99.90;;;;;;5052369;28;20032;-63
2022/11/24 07:55:26;;;;;;;30.35;15.02;;;8.60;99.90;;;;;;5052281;28;20052;-64
2022/11/24 07:57:52;;;;;;;32.97;16.60;;;8.60;99.90;;;;;;5052336;28;20064;-63
2022/11/24 08:00:18;;;;;;;37.53;19.08;;;8.60;99.90;;;;;;5052350;28;20033;-63
2022/11/24 08:02:43;;;;;;;44.17;21.98;;;8.60;99.90;;;;;;5051758;28;20025;-64
2022/11/24 08:05:09;;;;;;;39.78;20.75;;;8.70;99.90;;;;;;5052036;28;20108;-63
2022/11/24 08:07:35;;;;;;;37.35;20.85;;;8.70;99.90;;;;;;5050407;28;20534;-62
2022/11/24 08:10:00;;;;;;;41.67;21.67;;;8.80;99.90;;;;;;5051274;28;20021;-63
2022/11/24 08:12:26;;;;;;;40.55;21.25;;;8.80;99.90;;;;;;5051914;28;20496;-62
2022/11/24 08:14:52;;;;;;;35.38;19.92;;;8.90;99.90;;;;;;5051531;28;20037;-63
2022/11/24 08:17:18;;;;;;;36.20;19.60;;;8.90;99.90;;;;;;5051439;28;20075;-64
2022/11/24 08:19:44;;;;;;;37.13;19.45;;;10.30;99.90;;;;;;5052351;28;20394;-63
2022/11/24 08:22:10;;;;;;;34.15;19.20;;;10.40;99.90;;;;;;5052054;28;20021;-63
2022/11/24 08:24:36;;;;;;;34.85;19.38;;;9.80;99.90;;;;;;5050853;28;20081;-63
2022/11/24 08:27:02;;;;;;;31.05;18.52;;;9.80;99.90;;;;;;5052083;28;20020;-63
2022/11/24 08:29:28;;;;;;;32.25;18.17;;;11.00;99.90;;;;;;5051588;28;20029;-63
2022/11/24 08:31:56;;;;;;;27.42;16.45;;;12.80;99.90;;;;;;5051805;28;20028;-63
2022/11/24 08:34:23;;;;;;;30.73;16.88;;;13.40;99.90;;;;;;5051522;28;20079;-63
2022/11/24 08:36:49;;;;;;;27.73;14.82;;;13.60;99.90;;;;;;5051666;28;20017;-63
2022/11/24 08:39:15;;;;;;;27.98;15.85;;;14.30;99.90;;;;;;5051085;28;20079;-62
2022/11/24 08:41:40;;;;;;;25.67;15.77;;;13.00;99.90;;;;;;5051809;28;20044;-64
2022/11/24 08:44:08;;;;;;;27.75;16.33;;;11.90;99.90;;;;;;5051303;28;20079;-63
2022/11/24 08:46:33;;;;;;;31.08;16.67;;;11.30;99.90;;;;;;5051446;28;20541;-63
2022/11/24 08:48:59;;;;;;;33.13;17.40;;;11.30;99.90;;;;;;5051681;28;20029;-62
2022/11/24 08:51:26;;;;;;;28.98;16.73;;;13.00;99.90;;;;;;5051832;28;20551;-64
2022/11/24 08:53:57;;;;;;;30.60;16.60;;;12.90;99.90;;;;;;5050844;28;20449;-63
2022/11/24 08:56:23;;;;;;;24.63;15.95;;;12.00;99.90;;;;;;5052162;28;20504;-63
2022/11/24 08:58:49;;;;;;;25.65;14.52;;;12.30;99.90;;;;;;5051370;28;20091;-64
2022/11/24 09:01:17;;;;;;;23.70;13.95;;;12.40;99.90;;;;;;5051479;28;20486;-64
2022/11/24 09:03:45;;;;;;;28.13;17.63;;;12.10;99.90;;;;;;5051250;28;20025;-64
2022/11/24 09:06:11;;;;;;;22.10;10.93;;;11.80;99.90;;;;;;5051021;28;20041;-64
2022/11/24 09:08:37;;;;;;;18.13;9.10;;;11.40;99.90;;;;;;5051411;28;20032;-64
2022/11/24 09:11:06;;;;;;;19.15;8.38;;;11.20;99.90;;;;;;5051387;28;20094;-63
2022/11/24 09:13:32;;;;;;;18.92;7.70;;;11.30;99.90;;;;;;5052478;28;20025;-63
2022/11/24 09:16:05;;;;;;;16.08;7.10;;;11.30;99.90;;;;;;5055691;28;20479;-63
2022/11/24 09:18:31;;;;;;;16.83;6.80;;;11.70;99.90;;;;;;5055222;28;20021;-64
2022/11/24 09:21:19;;;;;;;15.07;6.18;;;12.90;99.90;;;;;;5055575;28;20033;-62
2022/11/24 09:23:50;;;;;;;15.07;6.30;;;13.30;99.90;;;;;;5055382;28;20116;-64
2022/11/24 09:26:18;;;;;;;16.13;5.70;;;13.30;99.90;;;;;;5055701;28;20033;-62
2022/11/24 09:28:44;;;;;;;13.45;5.22;;;13.50;99.90;;;;;;5055167;28;20488;-64
2022/11/24 09:31:12;;;;;;;12.77;4.40;;;13.80;99.90;;;;;;5052902;28;20033;-63
2022/11/24 09:33:38;;;;;;;14.38;5.10;;;14.20;99.90;;;;;;5054849;28;20009;-64
2022/11/24 09:36:06;;;;;;;12.95;4.40;;;14.60;99.90;;;;;;5054925;28;20851;-63
2022/11/24 09:38:32;;;;;;;14.55;4.47;;;15.40;99.90;;;;;;5055461;28;20044;-63
2022/11/24 09:41:16;;;;;;;16.33;4.50;;;15.90;99.90;;;;;;5054967;28;20052;-64
2022/11/24 09:44:03;;;;;;;14.95;4.43;;;16.20;99.90;;;;;;5055316;28;20057;-64
2022/11/24 09:46:31;;;;;;;12.18;4.03;;;17.30;99.90;;;;;;5054878;28;20405;-64
2022/11/24 09:48:59;;;;;;;13.48;3.72;;;17.10;99.90;;;;;;5054763;28;20025;-64
2022/11/24 09:51:29;;;;;;;12.02;3.90;;;16.80;99.90;;;;;;5054777;28;20060;-63
2022/11/24 09:53:58;;;;;;;10.18;3.80;;;16.20;99.90;;;;;;5054342;28;20053;-63
2022/11/24 09:56:27;;;;;;;9.20;3.45;;;16.00;99.90;;;;;;5054849;28;20025;-64
2022/11/24 09:59:01;;;;;;;10.35;3.95;;;16.20;99.90;;;;;;5055665;28;20025;-64
2022/11/24 10:01:38;;;;;;;10.63;3.58;;;16.30;99.90;;;;;;5055209;28;20557;-62
2022/11/24 10:04:28;;;;;;;9.55;2.92;;;16.00;99.90;;;;;;5055192;28;20100;-63
2022/11/24 10:07:20;;;;;;;10.52;3.15;;;15.70;99.90;;;;;;5054410;28;20479;-64
2022/11/24 10:10:05;;;;;;;11.15;3.17;;;15.60;99.90;;;;;;5055312;28;20021;-64
2022/11/24 10:12:54;;;;;;;9.60;3.25;;;15.80;99.90;;;;;;5055450;28;20482;-64
2022/11/24 10:15:34;;;;;;;11.05;3.72;;;16.70;99.90;;;;;;5051716;28;20401;-64
2022/11/24 10:18:31;;;;;;;10.23;3.30;;;16.90;99.90;;;;;;5054824;28;20390;-64
2022/11/24 10:21:21;;;;;;;9.10;3.17;;;17.60;99.90;;;;;;5054792;28;20048;-63
2022/11/24 10:24:05;;;;;;;10.02;3.20;;;17.60;99.90;;;;;;5054063;28;20033;-63
2022/11/24 10:26:56;;;;;;;9.98;2.90;;;16.80;99.90;;;;;;5052022;28;20048;-62
2022/11/24 10:29:27;;;;;;;10.23;2.80;;;16.10;99.90;;;;;;5054836;28;20084;-63
2022/11/24 10:31:55;;;;;;;11.02;3.30;;;16.00;99.90;;;;;;5054309;28;20047;-64
2022/11/24 10:34:28;;;;;;;10.18;2.70;;;16.30;99.90;;;;;;5054200;28;20025;-64
2022/11/24 10:37:27;;;;;;;12.70;3.30;;;16.10;99.90;;;;;;5054475;28;20017;-62
2022/11/24 10:40:07;;;;;;;10.52;3.03;;;16.00;99.90;;;;;;5053718;28;20044;-63
2022/11/24 10:42:35;;;;;;;13.25;3.10;;;16.20;99.90;;;;;;5053734;28;20036;-63
2022/11/24 10:45:17;;;;;;;10.60;3.20;;;15.80;99.90;;;;;;5053704;28;20033;-63
2022/11/24 10:47:44;;;;;;;11.57;3.58;;;15.50;99.90;;;;;;5054769;28;20033;-63
2022/11/24 10:50:22;;;;;;;10.60;3.25;;;15.30;99.90;;;;;;5053697;28;20021;-63
2022/11/24 10:53:19;;;;;;;11.93;2.90;;;15.20;99.90;;;;;;5054711;28;20469;-62
2022/11/24 10:55:57;;;;;;;12.95;3.38;;;15.00;99.90;;;;;;5052155;28;20546;-64
2022/11/24 10:58:28;;;;;;;14.73;3.20;;;15.20;99.90;;;;;;5054187;28;20095;-61
2022/11/24 11:00:55;;;;;;;12.50;3.15;;;15.20;99.90;;;;;;5054292;28;20025;-62
2022/11/24 11:03:27;;;;;;;11.00;3.10;;;15.20;99.90;;;;;;5053731;28;20033;-63
2022/11/24 11:05:55;;;;;;;11.30;3.70;;;15.00;99.90;;;;;;5053806;28;20025;-62
2022/11/24 11:08:29;;;;;;;12.13;3.40;;;15.10;99.90;;;;;;5054043;28;20055;-63
2022/11/24 11:11:19;;;;;;;11.05;3.20;;;15.10;99.90;;;;;;5053828;28;20029;-62
2022/11/24 11:13:50;;;;;;;14.52;3.22;;;14.90;99.90;;;;;;5053467;28;20025;-63
2022/11/24 11:16:45;;;;;;;12.02;3.25;;;14.70;99.90;;;;;;5053508;28;20036;-61
2022/11/24 11:19:33;;;;;;;11.88;3.47;;;14.90;99.90;;;;;;5053375;28;20025;-63
2022/11/24 11:22:18;;;;;;;11.40;3.28;;;15.40;99.90;;;;;;5053018;28;20023;-62
2022/11/24 11:24:46;;;;;;;15.80;3.15;;;16.10;99.90;;;;;;5052323;28;20470;-62
2022/11/24 11:27:18;;;;;;;10.25;3.30;;;17.00;99.90;;;;;;5053262;28;20104;-63
2022/11/24 11:29:44;;;;;;;10.98;3.05;;;17.40;99.90;;;;;;5052324;28;20537;-63
2022/11/24 11:32:17;;;;;;;11.70;3.40;;;17.40;99.90;;;;;;5052549;28;20055;-62
2022/11/24 11:34:43;;;;;;;14.15;3.50;;;16.60;99.90;;;;;;5053285;28;20502;-63
2022/11/24 11:37:13;;;;;;;13.65;2.97;;;16.00;99.90;;;;;;5051968;28;20037;-63
2022/11/24 11:39:47;;;;;;;11.57;3.05;;;16.00;99.90;;;;;;5052539;28;20079;-63
2022/11/24 11:42:24;;;;;;;12.07;3.50;;;16.00;99.90;;;;;;5052619;28;20059;-63
2022/11/24 11:45:29;;;;;;;14.70;3.28;;;15.70;99.90;;;;;;5052555;28;20036;-62
2022/11/24 11:48:21;;;;;;;14.00;3.28;;;15.40;99.90;;;;;;5051400;28;20041;-61
2022/11/24 11:50:53;;;;;;;12.57;3.28;;;15.40;99.90;;;;;;5052475;28;20024;-62
2022/11/24 11:53:27;;;;;;;10.57;3.15;;;15.30;99.90;;;;;;5052891;28;20029;-62
2022/11/24 11:56:02;;;;;;;12.52;3.30;;;15.30;99.90;;;;;;5052289;28;20032;-64
2022/11/24 11:59:09;;;;;;;11.48;3.38;;;15.20;99.90;;;;;;5052463;28;20025;-62
2022/11/24 12:02:01;;;;;;;11.00;3.45;;;15.30;99.90;;;;;;5051912;28;20021;-62
2022/11/24 12:04:47;;;;;;;14.45;3.28;;;15.30;99.90;;;;;;5052417;28;20025;-62
2022/11/24 12:07:36;;;;;;;13.93;3.53;;;15.30;99.90;;;;;;5052055;28;20037;-61
2022/11/24 12:10:33;;;;;;;14.18;3.70;;;15.40;99.90;;;;;;5030285;28;20037;-61
2022/11/24 12:13:09;;;;;;;16.65;3.50;;;15.30;99.90;;;;;;5029979;28;20049;-61
2022/11/24 12:15:47;;;;;;;13.40;3.47;;;15.30;99.90;;;;;;5029835;28;20037;-61
2022/11/24 12:18:19;;;;;;;15.55;3.90;;;15.20;99.90;;;;;;5029956;28;20034;-63
2022/11/24 12:21:13;;;;;;;17.75;4.28;;;15.30;99.90;;;;;;5029830;28;20124;-62
2022/11/24 12:23:54;;;;;;;12.38;3.53;;;15.20;99.90;;;;;;5029896;28;20547;-65
2022/11/24 12:26:31;;;;;;;13.75;3.90;;;15.30;99.90;;;;;;5029889;28;20667;-61
2022/11/24 12:29:04;;;;;;;14.13;4.22;;;15.10;99.90;;;;;;5030230;28;20112;-63
2022/11/24 12:31:58;;;;;;;16.35;4.63;;;15.10;99.90;;;;;;5029514;28;20033;-62
2022/11/24 12:34:30;;;;;;;13.30;4.63;;;15.10;99.90;;;;;;5028867;28;20489;-63
2022/11/24 12:37:14;;;;;;;12.77;4.00;;;15.00;99.90;;;;;;5030036;28;20033;-64
2022/11/24 12:39:51;;;;;;;16.42;4.60;;;15.00;99.90;;;;;;5029213;28;20142;-63
2022/11/24 12:42:34;;;;;;;17.45;5.65;;;15.10;99.90;;;;;;5029439;28;20045;-64
2022/11/24 12:45:13;;;;;;;19.30;6.65;;;15.10;99.90;;;;;;5029319;28;20819;-63
2022/11/24 12:48:12;;;;;;;20.23;6.95;;;15.00;99.90;;;;;;5034680;28;20030;-63
2022/11/24 12:50:41;;;;;;;14.60;4.25;;;14.90;99.90;;;;;;5038460;28;20083;-63
2022/11/24 12:53:23;;;;;;;14.50;3.47;;;15.00;99.90;;;;;;5038883;28;20018;-63
2022/11/24 12:55:49;;;;;;;15.13;4.13;;;14.90;99.90;;;;;;5038364;28;20056;-64